Terminal Aerodrome Forecast
Issued by NWS

Home | Current Version | Previous Version | Text Only | Print | Product List | Glossary On
Versions: 1 2 3 4 5 6 7 8 9 10 11 12 13 14 15
000
FTUS46 KSGX 290913 AAA
TAFCRQ
TAF AMD
KCRQ 290913Z 2909/3006 00000KT 1/2SM FG BKN003
     FM291500 VRB03KT 3SM BR SCT002
     FM291600 VRB03KT P6SM SKC
     FM291930 25009KT P6SM SKC
     FM300300 VRB05KT P6SM BKN003=

USA.gov is the U.S. government's official web portal to all federal, state and local government web resources and services.